createdAt,value
2019-04-06T00:00:08.830Z,66.82
2019-04-06T00:01:08.824Z,66.82
2019-04-06T00:02:08.846Z,67.13
2019-04-06T00:03:08.804Z,67.02
2019-04-06T00:04:08.786Z,66.11
2019-04-06T00:05:08.776Z,65.80
2019-04-06T00:06:08.773Z,65.91
2019-04-06T00:07:08.767Z,65.19
2019-04-06T00:08:08.735Z,65.77
2019-04-06T00:09:08.729Z,65.57
2019-04-06T00:10:08.740Z,65.06
2019-04-06T00:11:08.715Z,65.06
2019-04-06T00:12:08.739Z,65.26
2019-04-06T00:13:08.703Z,64.65
2019-04-06T00:14:08.681Z,64.76
2019-04-06T00:15:08.662Z,64.45
2019-04-06T00:16:08.653Z,64.65
2019-04-06T00:17:08.665Z,64.65
2019-04-06T00:18:08.635Z,64.04
2019-04-06T00:19:08.620Z,63.64
2019-04-06T00:20:08.600Z,63.54
2019-04-06T00:21:08.626Z,63.33
2019-04-06T00:22:08.627Z,63.23
2019-04-06T00:23:08.580Z,63.23
2019-04-06T00:24:08.571Z,62.93
2019-04-06T00:25:08.555Z,63.02
2019-04-06T00:26:08.539Z,62.72
2019-04-06T00:27:08.572Z,62.79
2019-04-06T00:28:08.568Z,62.62
2019-04-06T00:29:08.525Z,62.11
2019-04-06T00:30:08.511Z,62.18
2019-04-06T00:31:08.480Z,62.18
2019-04-06T00:32:08.488Z,61.98
2019-04-06T00:33:08.571Z,61.98
2019-04-06T00:34:08.451Z,62.49
2019-04-06T00:35:08.452Z,61.78
2019-04-06T00:36:08.431Z,61.60
2019-04-06T00:37:08.444Z,61.57
2019-04-06T00:38:08.431Z,61.78
2019-04-06T00:39:08.403Z,61.98
2019-04-06T00:40:08.387Z,62.18
2019-04-06T00:41:08.385Z,62.29
2019-04-06T00:42:08.385Z,61.47
2019-04-06T00:43:08.403Z,60.86
2019-04-06T00:44:08.337Z,61.27
2019-04-06T00:45:08.339Z,60.76
2019-04-06T00:46:08.378Z,61.07
2019-04-06T00:47:08.329Z,61.27
2019-04-06T00:48:08.339Z,60.76
2019-04-06T00:49:08.281Z,60.97
2019-04-06T00:50:08.274Z,60.66
2019-04-06T00:51:08.255Z,60.15
2019-04-06T00:52:08.285Z,60.46
2019-04-06T00:53:08.292Z,60.25
2019-04-06T00:54:08.229Z,60.46
2019-04-06T00:55:08.230Z,59.95
2019-04-06T00:56:08.230Z,60.05
2019-04-06T00:57:08.193Z,59.84
2019-04-06T00:58:08.199Z,59.54
2019-04-06T00:59:08.172Z,59.54
2019-04-06T01:00:08.157Z,59.34
2019-04-06T01:01:08.172Z,59.75
2019-04-06T01:02:08.146Z,59.44
2019-04-06T01:03:08.245Z,59.64
2019-04-06T01:04:08.113Z,59.41
2019-04-06T01:05:08.107Z,59.14
2019-04-06T01:06:08.094Z,59.44
2019-04-06T01:07:08.075Z,59.03
2019-04-06T01:08:08.083Z,59.34
2019-04-06T01:09:08.067Z,59.34
2019-04-06T01:10:08.064Z,59.14
2019-04-06T01:11:08.042Z,59.34
2019-04-06T01:12:08.078Z,58.73
2019-04-06T01:13:08.034Z,58.70
2019-04-06T01:14:08.002Z,58.22
2019-04-06T01:15:08.016Z,58.53
2019-04-06T01:16:07.984Z,58.29
2019-04-06T01:17:07.968Z,57.99
2019-04-06T01:18:08.035Z,58.20
2019-04-06T01:19:07.978Z,58.42
2019-04-06T01:20:07.968Z,58.02
2019-04-06T01:21:07.942Z,58.02
2019-04-06T01:22:07.915Z,58.42
2019-04-06T01:23:07.910Z,58.02
2019-04-06T01:24:07.974Z,57.51
2019-04-06T01:25:07.885Z,57.61
2019-04-06T01:26:08.011Z,58.20
2019-04-06T01:27:07.855Z,57.31
2019-04-06T01:28:07.862Z,57.89
2019-04-06T01:29:07.857Z,57.79
2019-04-06T01:30:07.872Z,57.38
2019-04-06T01:31:07.822Z,57.41
2019-04-06T01:32:07.794Z,57.59
2019-04-06T01:33:07.795Z,57.71
2019-04-06T01:34:07.805Z,57.71
2019-04-06T01:35:07.770Z,57.59
2019-04-06T01:36:07.778Z,57.51
2019-04-06T01:37:07.857Z,57.81
2019-04-06T01:38:07.756Z,57.92
2019-04-06T01:39:07.764Z,57.61
2019-04-06T01:40:07.713Z,57.41
2019-04-06T01:41:07.815Z,57.71
2019-04-06T01:42:07.713Z,57.61
2019-04-06T01:43:07.692Z,57.61
2019-04-06T01:44:07.710Z,57.61
2019-04-06T01:45:07.690Z,57.81
2019-04-06T01:46:07.646Z,57.41
2019-04-06T01:47:07.651Z,57.61
2019-04-06T01:48:07.631Z,58.12
2019-04-06T01:49:07.663Z,57.92
2019-04-06T01:50:07.602Z,57.31
2019-04-06T01:51:07.603Z,58.12
2019-04-06T01:52:07.610Z,57.92
2019-04-06T01:53:07.581Z,58.94
2019-04-06T01:54:07.600Z,57.41
2019-04-06T01:55:07.562Z,57.81
2019-04-06T01:56:18.067Z,58.02
2019-04-06T01:57:08.536Z,57.81
2019-04-06T01:58:07.514Z,57.41
2019-04-06T01:59:07.625Z,57.81
2019-04-06T02:00:07.520Z,58.73
2019-04-06T02:01:07.487Z,58.73
2019-04-06T02:02:07.471Z,58.63
2019-04-06T02:03:07.493Z,58.63
2019-04-06T02:04:07.472Z,58.12
2019-04-06T02:05:07.436Z,58.02
2019-04-06T02:06:07.436Z,58.22
2019-04-06T02:07:07.468Z,58.12
2019-04-06T02:08:07.451Z,58.53
2019-04-06T02:09:07.406Z,58.02
2019-04-06T02:10:07.384Z,58.12
2019-04-06T02:11:07.377Z,58.12
2019-04-06T02:12:07.361Z,58.53
2019-04-06T02:13:07.351Z,58.33
2019-04-06T02:14:07.396Z,58.94
2019-04-06T02:15:07.328Z,58.76
2019-04-06T02:16:07.359Z,58.63
2019-04-06T02:17:07.303Z,58.76
2019-04-06T02:18:07.299Z,58.73
2019-04-06T02:19:07.278Z,58.56
2019-04-06T02:20:07.329Z,58.56
2019-04-06T02:21:07.272Z,58.76
2019-04-06T02:22:07.253Z,58.76
2019-04-06T02:23:07.259Z,58.86
2019-04-06T02:24:07.217Z,58.96
2019-04-06T02:25:07.238Z,59.16
2019-04-06T02:26:07.235Z,59.67
2019-04-06T02:27:07.237Z,59.67
2019-04-06T02:28:07.200Z,59.67
2019-04-06T02:29:07.167Z,59.57
2019-04-06T02:30:07.206Z,59.37
2019-04-06T02:31:07.231Z,59.37
2019-04-06T02:32:07.148Z,59.77
2019-04-06T02:33:07.207Z,59.88
2019-04-06T02:34:07.227Z,59.88
2019-04-06T02:35:07.151Z,59.47
2019-04-06T02:36:07.096Z,59.57
2019-04-06T02:37:07.095Z,59.47
2019-04-06T02:38:07.083Z,59.37
2019-04-06T02:39:07.072Z,59.57
2019-04-06T02:40:08.013Z,59.67
2019-04-06T02:41:07.035Z,59.67
2019-04-06T02:42:07.020Z,59.16
2019-04-06T02:43:07.036Z,59.88
2019-04-06T02:44:07.145Z,59.27
2019-04-06T02:45:07.047Z,59.16
2019-04-06T02:46:06.984Z,58.96
2019-04-06T02:47:06.968Z,59.06
2019-04-06T02:48:07.042Z,59.27
2019-04-06T02:49:06.961Z,59.06
2019-04-06T02:50:07.541Z,58.96
2019-04-06T02:51:06.945Z,59.16
2019-04-06T02:52:06.937Z,59.19
2019-04-06T02:53:06.959Z,59.16
2019-04-06T02:54:06.886Z,59.37
2019-04-06T02:55:06.947Z,59.37
2019-04-06T02:56:06.915Z,59.30
2019-04-06T02:57:06.864Z,59.39
2019-04-06T02:58:06.854Z,59.37
2019-04-06T02:59:06.867Z,59.06
2019-04-06T03:00:06.851Z,59.06
2019-04-06T03:01:06.852Z,58.89
2019-04-06T03:02:06.821Z,58.89
2019-04-06T03:03:06.827Z,59.09
2019-04-06T03:04:06.807Z,58.89
2019-04-06T03:05:06.796Z,59.09
2019-04-06T03:06:06.854Z,59.19
2019-04-06T03:07:06.757Z,58.89
2019-04-06T03:08:06.758Z,59.60
2019-04-06T03:09:06.915Z,59.70
2019-04-06T03:10:06.736Z,58.89
2019-04-06T03:11:06.741Z,59.09
2019-04-06T03:12:06.691Z,59.09
2019-04-06T03:13:06.872Z,59.19
2019-04-06T03:14:06.726Z,59.09
2019-04-06T03:15:06.786Z,59.39
2019-04-06T03:16:06.677Z,59.19
2019-04-06T03:17:06.723Z,59.70
2019-04-06T03:18:06.768Z,59.09
2019-04-06T03:19:06.633Z,59.09
2019-04-06T03:20:06.851Z,58.89
2019-04-06T03:21:06.634Z,58.78
2019-04-06T03:22:06.601Z,59.39
2019-04-06T03:23:06.576Z,59.42
2019-04-06T03:24:06.570Z,59.30
2019-04-06T03:25:06.746Z,59.39
2019-04-06T03:26:06.615Z,59.39
2019-04-06T03:27:06.525Z,59.32
2019-04-06T03:28:06.506Z,59.39
2019-04-06T03:29:06.684Z,59.09
2019-04-06T03:30:06.532Z,59.32
2019-04-06T03:31:06.549Z,58.89
2019-04-06T03:32:06.475Z,59.09
2019-04-06T03:33:06.533Z,59.42
2019-04-06T03:34:06.451Z,59.22
2019-04-06T03:35:06.782Z,59.39
2019-04-06T03:36:06.448Z,59.30
2019-04-06T03:37:06.404Z,59.32
2019-04-06T03:38:06.411Z,59.12
2019-04-06T03:39:06.394Z,59.42
2019-04-06T03:40:06.400Z,59.63
2019-04-06T03:41:06.457Z,59.63
2019-04-06T03:42:06.373Z,59.19
2019-04-06T03:43:06.459Z,59.50
2019-04-06T03:44:06.339Z,59.12
2019-04-06T03:45:06.320Z,59.50
2019-04-06T03:46:06.328Z,58.81
2019-04-06T03:47:06.312Z,58.71
2019-04-06T03:48:06.289Z,58.58
2019-04-06T03:49:06.273Z,58.69
2019-04-06T03:50:06.281Z,59.01
2019-04-06T03:51:06.292Z,58.38
2019-04-06T03:52:06.304Z,58.89
2019-04-06T03:53:06.227Z,58.17
2019-04-06T03:54:06.429Z,58.81
2019-04-06T03:55:06.232Z,58.71
2019-04-06T03:56:06.196Z,58.20
2019-04-06T03:57:14.393Z,58.17
2019-04-06T03:58:07.390Z,58.07
2019-04-06T03:59:06.162Z,58.48
2019-04-06T04:00:06.162Z,57.97
2019-04-06T04:01:06.133Z,57.97
2019-04-06T04:02:06.150Z,58.17
2019-04-06T04:03:06.108Z,57.97
2019-04-06T04:04:06.112Z,57.87
2019-04-06T04:05:06.157Z,58.07
2019-04-06T04:06:06.078Z,58.17
2019-04-06T04:07:06.146Z,58.20
2019-04-06T04:08:06.063Z,58.40
2019-04-06T04:09:06.048Z,58.28
2019-04-06T04:10:06.069Z,58.07
2019-04-06T04:11:06.310Z,58.10
2019-04-06T04:12:06.039Z,58.07
2019-04-06T04:13:06.011Z,57.87
2019-04-06T04:14:06.000Z,58.07
2019-04-06T04:15:05.989Z,58.10
2019-04-06T04:16:05.966Z,58.00
2019-04-06T04:17:06.104Z,58.10
2019-04-06T04:18:06.208Z,58.20
2019-04-06T04:19:05.935Z,58.07
2019-04-06T04:20:05.930Z,57.97
2019-04-06T04:21:05.922Z,58.07
2019-04-06T04:22:05.913Z,58.61
2019-04-06T04:23:05.902Z,58.30
2019-04-06T04:24:05.899Z,58.78
2019-04-06T04:25:05.978Z,58.58
2019-04-06T04:26:05.869Z,58.71
2019-04-06T04:27:05.875Z,58.51
2019-04-06T04:28:05.884Z,58.51
2019-04-06T04:29:05.814Z,58.69
2019-04-06T04:30:05.862Z,58.28
2019-04-06T04:31:05.809Z,58.30
2019-04-06T04:32:05.806Z,58.07
2019-04-06T04:33:05.861Z,58.20
2019-04-06T04:34:05.769Z,58.30
2019-04-06T04:35:05.767Z,57.90
2019-04-06T04:36:05.861Z,58.00
2019-04-06T04:37:05.756Z,58.00
2019-04-06T04:38:05.730Z,58.51
2019-04-06T04:39:05.944Z,58.81
2019-04-06T04:40:05.693Z,58.00
2019-04-06T04:41:05.706Z,57.69
2019-04-06T04:42:05.722Z,57.90
2019-04-06T04:43:05.695Z,58.00
2019-04-06T04:44:05.656Z,57.90
2019-04-06T04:45:05.849Z,58.38
2019-04-06T04:46:05.668Z,58.38
2019-04-06T04:47:05.653Z,58.20
2019-04-06T04:48:05.660Z,57.90
2019-04-06T04:49:05.608Z,57.69
2019-04-06T04:50:05.882Z,57.90
2019-04-06T04:51:05.587Z,58.10
2019-04-06T04:52:05.596Z,57.36
2019-04-06T04:53:05.555Z,57.49
2019-04-06T04:54:05.543Z,58.00
2019-04-06T04:55:05.562Z,57.79
2019-04-06T04:56:05.539Z,57.90
2019-04-06T04:57:05.521Z,57.69
2019-04-06T04:58:05.529Z,57.49
2019-04-06T04:59:05.510Z,58.38
2019-04-06T05:00:05.650Z,57.87
2019-04-06T05:01:05.470Z,58.51
2019-04-06T05:02:05.492Z,58.40
2019-04-06T05:03:05.571Z,58.89
2019-04-06T05:04:05.432Z,58.58
2019-04-06T05:05:05.417Z,58.78
2019-04-06T05:06:05.465Z,58.10
2019-04-06T05:07:05.455Z,58.81
2019-04-06T05:08:05.413Z,57.49
2019-04-06T05:09:05.377Z,58.71
2019-04-06T05:10:05.369Z,57.39
2019-04-06T05:11:05.387Z,57.59
2019-04-06T05:12:05.371Z,57.87
2019-04-06T05:13:05.366Z,58.10
2019-04-06T05:14:05.318Z,58.17
2019-04-06T05:15:05.447Z,57.69
2019-04-06T05:16:05.292Z,57.36
2019-04-06T05:17:05.455Z,58.00
2019-04-06T05:18:05.298Z,57.87
2019-04-06T05:19:05.253Z,57.87
2019-04-06T05:20:05.252Z,58.40
2019-04-06T05:21:05.235Z,57.90
2019-04-06T05:22:05.231Z,57.67
2019-04-06T05:23:05.228Z,57.56
2019-04-06T05:24:05.229Z,58.30
2019-04-06T05:25:05.531Z,58.00
2019-04-06T05:26:05.398Z,57.90
2019-04-06T05:27:05.176Z,58.17
2019-04-06T05:28:05.284Z,57.67
2019-04-06T05:29:05.161Z,57.90
2019-04-06T05:30:05.169Z,57.87
2019-04-06T05:31:05.137Z,57.79
2019-04-06T05:32:05.117Z,57.77
2019-04-06T05:33:05.127Z,57.77
2019-04-06T05:34:05.130Z,58.17
2019-04-06T05:35:05.067Z,58.00
2019-04-06T05:36:05.170Z,58.17
2019-04-06T05:37:05.079Z,58.07
2019-04-06T05:38:05.074Z,58.17
2019-04-06T05:39:05.211Z,57.56
2019-04-06T05:40:05.048Z,58.17
2019-04-06T05:41:05.156Z,57.97
2019-04-06T05:42:04.997Z,58.17
2019-04-06T05:43:04.987Z,58.17
2019-04-06T05:44:05.153Z,57.87
2019-04-06T05:45:04.998Z,58.07
2019-04-06T05:46:04.981Z,57.56
2019-04-06T05:47:04.965Z,58.58
2019-04-06T05:48:04.944Z,58.38
2019-04-06T05:49:04.951Z,58.48
2019-04-06T05:50:04.957Z,58.17
2019-04-06T05:51:04.927Z,58.17
2019-04-06T05:52:04.885Z,57.97
2019-04-06T05:53:04.967Z,58.28
2019-04-06T05:54:04.930Z,58.17
2019-04-06T05:55:04.952Z,57.97
2019-04-06T05:56:04.865Z,58.07
2019-04-06T05:57:04.942Z,57.26
2019-04-06T05:58:09.769Z,57.43
2019-04-06T05:59:05.906Z,57.34
2019-04-06T06:00:04.838Z,58.04
2019-04-06T06:01:04.789Z,57.43
2019-04-06T06:02:04.898Z,58.04
2019-04-06T06:03:04.764Z,57.43
2019-04-06T06:04:04.776Z,57.43
2019-04-06T06:05:04.738Z,58.15
2019-04-06T06:06:04.927Z,57.34
2019-04-06T06:07:04.721Z,57.95
2019-04-06T06:08:04.698Z,57.43
2019-04-06T06:09:04.715Z,57.34
2019-04-06T06:10:04.821Z,57.13
2019-04-06T06:11:04.669Z,57.43
2019-04-06T06:12:04.864Z,57.34
2019-04-06T06:13:04.690Z,57.54
2019-04-06T06:14:04.686Z,57.54
2019-04-06T06:15:04.692Z,57.54
2019-04-06T06:16:04.633Z,57.64
2019-04-06T06:17:04.630Z,57.54
2019-04-06T06:18:04.634Z,57.74
2019-04-06T06:19:05.939Z,57.51
2019-04-06T06:20:04.712Z,57.34
2019-04-06T06:21:04.591Z,57.23
2019-04-06T06:22:04.704Z,57.54
2019-04-06T06:23:04.545Z,57.41
2019-04-06T06:24:04.875Z,57.71
2019-04-06T06:25:04.509Z,57.21
2019-04-06T06:26:04.512Z,57.41
2019-04-06T06:27:04.960Z,57.21
2019-04-06T06:28:14.191Z,57.41
2019-04-06T06:29:05.661Z,57.21
2019-04-06T06:30:05.373Z,56.70
2019-04-06T06:31:04.485Z,56.70
2019-04-06T06:32:04.444Z,56.80
2019-04-06T06:33:07.221Z,56.80
2019-04-06T06:34:04.478Z,56.09
2019-04-06T06:35:06.107Z,56.39
2019-04-06T06:36:04.416Z,56.80
2019-04-06T06:37:04.372Z,57.61
2019-04-06T06:38:04.383Z,57.61
2019-04-06T06:39:05.398Z,57.71
2019-04-06T06:40:04.463Z,58.33
2019-04-06T06:41:04.339Z,57.92
2019-04-06T06:42:04.356Z,57.41
2019-04-06T06:43:04.330Z,56.87
2019-04-06T06:44:04.507Z,56.06
2019-04-06T06:45:04.368Z,56.57
2019-04-06T06:46:04.526Z,56.37
2019-04-06T06:47:04.344Z,55.76
2019-04-06T06:48:04.297Z,56.24
2019-04-06T06:49:04.345Z,55.76
2019-04-06T06:50:04.312Z,55.86
2019-04-06T06:51:04.341Z,55.96
2019-04-06T06:52:04.286Z,56.06
2019-04-06T06:53:04.214Z,56.13
2019-04-06T06:54:04.198Z,55.73
2019-04-06T06:55:04.203Z,56.04
2019-04-06T06:56:04.180Z,56.24
2019-04-06T06:57:04.198Z,56.13
2019-04-06T06:58:04.162Z,55.63
2019-04-06T06:59:04.168Z,55.93
2019-04-06T07:00:04.156Z,55.83
2019-04-06T07:01:04.159Z,56.34
2019-04-06T07:02:04.203Z,56.04
2019-04-06T07:03:04.108Z,55.50
2019-04-06T07:04:04.108Z,55.30
2019-04-06T07:05:04.139Z,54.59
2019-04-06T07:06:04.076Z,54.59
2019-04-06T07:07:04.057Z,54.79
2019-04-06T07:08:04.041Z,54.66
2019-04-06T07:09:04.029Z,54.16
2019-04-06T07:10:05.926Z,53.96
2019-04-06T07:11:03.998Z,53.83
2019-04-06T07:12:03.994Z,53.65
2019-04-06T07:13:03.980Z,52.94
2019-04-06T07:14:04.023Z,53.42
2019-04-06T07:15:04.007Z,53.63
2019-04-06T07:16:03.951Z,53.72
2019-04-06T07:17:03.947Z,53.63
2019-04-06T07:18:03.928Z,53.63
2019-04-06T07:19:04.095Z,53.22
2019-04-06T07:20:04.017Z,53.09
2019-04-06T07:21:03.930Z,53.30
2019-04-06T07:22:03.915Z,53.09
2019-04-06T07:23:03.902Z,53.40
2019-04-06T07:24:03.925Z,52.66
2019-04-06T07:25:03.910Z,52.15
2019-04-06T07:26:03.838Z,52.39
2019-04-06T07:27:03.822Z,52.76
2019-04-06T07:28:03.813Z,52.06
2019-04-06T07:29:03.810Z,52.06
2019-04-06T07:30:03.785Z,52.26
2019-04-06T07:31:03.808Z,52.54
2019-04-06T07:32:03.777Z,51.83
2019-04-06T07:33:03.748Z,52.03
2019-04-06T07:34:03.736Z,51.73
2019-04-06T07:35:03.799Z,50.92
2019-04-06T07:36:03.805Z,50.92
2019-04-06T07:37:03.725Z,51.62
2019-04-06T07:38:03.688Z,50.82
2019-04-06T07:39:03.721Z,51.12
2019-04-06T07:40:03.711Z,50.92
2019-04-06T07:41:03.733Z,50.71
2019-04-06T07:42:03.660Z,51.02
2019-04-06T07:43:03.652Z,50.69
2019-04-06T07:44:05.677Z,50.92
2019-04-06T07:45:03.616Z,51.90
2019-04-06T07:46:03.611Z,51.20
2019-04-06T07:47:03.808Z,50.89
2019-04-06T07:48:03.581Z,50.87
2019-04-06T07:49:09.322Z,50.46
2019-04-06T07:50:04.549Z,50.57
2019-04-06T07:51:03.684Z,50.44
2019-04-06T07:52:03.537Z,49.93
2019-04-06T07:53:03.524Z,50.24
2019-04-06T07:54:03.655Z,49.73
2019-04-06T07:55:03.502Z,49.33
2019-04-06T07:56:03.582Z,50.62
2019-04-06T07:57:03.479Z,50.14
2019-04-06T07:58:03.586Z,49.71
2019-04-06T07:59:03.689Z,49.71
2019-04-06T08:00:03.461Z,49.01
2019-04-06T08:01:03.587Z,49.21
2019-04-06T08:02:03.501Z,49.01
2019-04-06T08:03:03.676Z,48.90
2019-04-06T08:04:03.400Z,48.90
2019-04-06T08:05:03.725Z,49.30
2019-04-06T08:06:03.369Z,48.98
2019-04-06T08:07:03.404Z,48.78
2019-04-06T08:08:03.349Z,48.68
2019-04-06T08:09:03.916Z,48.55
2019-04-06T08:10:03.404Z,47.54
2019-04-06T08:11:03.349Z,47.95
2019-04-06T08:12:03.327Z,47.95
2019-04-06T08:13:03.298Z,47.62
2019-04-06T08:14:03.302Z,47.62
2019-04-06T08:15:03.274Z,47.95
2019-04-06T08:16:03.386Z,47.92
2019-04-06T08:17:03.269Z,47.34
2019-04-06T08:18:03.259Z,47.42
2019-04-06T08:19:03.360Z,47.42
2019-04-06T08:20:03.217Z,46.92
2019-04-06T08:21:03.218Z,46.81
2019-04-06T08:22:03.853Z,46.51
2019-04-06T08:23:03.372Z,47.02
2019-04-06T08:24:03.281Z,46.92
2019-04-06T08:25:03.203Z,46.61
2019-04-06T08:26:03.148Z,46.61
2019-04-06T08:27:04.912Z,46.92
2019-04-06T08:28:03.179Z,46.41
2019-04-06T08:29:03.141Z,46.69
2019-04-06T08:30:03.111Z,46.92
2019-04-06T08:31:03.185Z,46.79
2019-04-06T08:32:04.365Z,46.89
2019-04-06T08:33:03.108Z,46.69
2019-04-06T08:34:03.204Z,46.59
2019-04-06T08:35:03.166Z,46.67
2019-04-06T08:36:04.071Z,46.49
2019-04-06T08:37:10.229Z,47.09
2019-04-06T08:38:03.068Z,46.06
2019-04-06T08:39:03.912Z,46.47
2019-04-06T08:40:04.921Z,46.97
2019-04-06T08:41:05.109Z,46.57
2019-04-06T08:42:05.883Z,46.87
2019-04-06T08:43:06.626Z,46.57
2019-04-06T08:45:35.594Z,46.47
2019-04-06T08:46:35.485Z,46.47
2019-04-06T08:47:35.527Z,46.67
2019-04-06T08:48:35.496Z,46.37
2019-04-06T08:49:35.520Z,47.27
2019-04-06T08:50:35.489Z,46.57
2019-04-06T08:51:35.532Z,46.67
2019-04-06T08:52:35.554Z,46.37
2019-04-06T08:53:35.453Z,46.55
2019-04-06T08:54:36.015Z,47.66
2019-04-06T08:55:35.598Z,46.73
2019-04-06T08:56:35.441Z,46.62
2019-04-06T08:57:35.421Z,46.34
2019-04-06T08:58:35.669Z,46.22
2019-04-06T08:59:35.375Z,45.92
2019-04-06T09:00:35.354Z,46.02
2019-04-06T09:01:35.490Z,44.92
2019-04-06T09:02:36.290Z,44.92
2019-04-06T09:03:36.187Z,46.12
2019-04-06T09:04:35.287Z,45.00
2019-04-06T09:05:35.310Z,45.79
2019-04-06T09:06:35.275Z,45.39
2019-04-06T09:07:35.288Z,45.07
2019-04-06T09:08:35.257Z,44.57
2019-04-06T09:09:35.223Z,45.07
2019-04-06T09:10:35.218Z,45.17
2019-04-06T09:11:35.201Z,44.35
2019-04-06T09:12:35.263Z,44.24
2019-04-06T09:13:35.208Z,43.54
2019-04-06T09:14:35.181Z,44.04
2019-04-06T09:15:35.174Z,43.12
2019-04-06T09:16:35.182Z,43.42
2019-04-06T09:17:35.151Z,42.61
2019-04-06T09:18:35.152Z,43.52
2019-04-06T09:19:35.531Z,43.20
2019-04-06T09:20:35.142Z,43.20
2019-04-06T09:21:35.298Z,42.60
2019-04-06T09:22:35.084Z,42.69
2019-04-06T09:23:35.180Z,42.60
2019-04-06T09:24:35.055Z,42.69
2019-04-06T09:25:35.052Z,42.49
2019-04-06T09:26:35.070Z,42.19
2019-04-06T09:27:35.163Z,42.80
2019-04-06T09:28:35.259Z,42.49
2019-04-06T09:29:35.489Z,42.40
2019-04-06T09:30:34.986Z,42.60
2019-04-06T09:31:35.001Z,43.00
2019-04-06T09:32:35.045Z,42.90
2019-04-06T09:33:35.363Z,42.49
2019-04-06T09:34:34.969Z,42.18
2019-04-06T09:35:34.970Z,42.47
2019-04-06T09:36:35.126Z,42.27
2019-04-06T09:37:34.908Z,41.77
2019-04-06T09:38:34.973Z,42.05
2019-04-06T09:39:35.009Z,41.75
2019-04-06T09:40:34.983Z,41.96
2019-04-06T09:41:35.547Z,41.35
2019-04-06T09:42:34.857Z,41.33
2019-04-06T09:43:34.851Z,41.03
2019-04-06T09:44:34.877Z,41.13
2019-04-06T09:45:34.848Z,41.33
2019-04-06T09:46:34.818Z,41.63
2019-04-06T09:47:34.801Z,41.93
2019-04-06T09:48:34.995Z,40.83
2019-04-06T09:49:35.602Z,41.43
2019-04-06T09:50:34.770Z,41.71
2019-04-06T09:51:34.749Z,44.32
2019-04-06T09:52:34.749Z,41.29
2019-04-06T09:53:34.732Z,40.79
2019-04-06T09:54:34.742Z,39.37
2019-04-06T09:55:35.069Z,40.57
2019-04-06T09:56:34.968Z,39.45
2019-04-06T09:57:34.703Z,39.25
2019-04-06T09:58:34.697Z,38.45
2019-04-06T09:59:37.064Z,39.23
2019-04-06T10:00:34.740Z,38.63
2019-04-06T10:01:38.895Z,38.11
2019-04-06T10:02:34.696Z,37.79
2019-04-06T10:03:34.649Z,39.09
2019-04-06T10:04:34.670Z,37.40
2019-04-06T10:05:34.674Z,36.68
2019-04-06T10:06:34.628Z,36.78
2019-04-06T10:07:34.609Z,37.38
2019-04-06T10:08:34.580Z,36.56
2019-04-06T10:09:34.799Z,36.46
2019-04-06T10:10:34.858Z,36.44
2019-04-06T10:11:34.812Z,35.63
2019-04-06T10:12:34.594Z,34.89
2019-04-06T10:13:34.520Z,34.06
2019-04-06T10:14:34.522Z,32.62
2019-04-06T10:15:34.521Z,31.07
2019-04-06T10:16:34.491Z,29.33
2019-04-06T10:17:34.485Z,28.20
2019-04-06T10:18:34.463Z,26.96
2019-04-06T10:19:34.458Z,25.93
2019-04-06T10:20:34.445Z,24.91
2019-04-06T10:21:34.461Z,25.07
2019-04-06T10:22:34.432Z,23.67
2019-04-06T10:23:34.407Z,22.96
2019-04-06T10:24:34.382Z,22.16
2019-04-06T10:25:34.423Z,21.44
2019-04-06T10:26:34.464Z,21.32
2019-04-06T10:27:34.355Z,20.51
2019-04-06T10:28:34.385Z,19.71
2019-04-06T10:29:47.615Z,18.73
2019-04-06T10:30:35.330Z,18.92
2019-04-06T10:31:34.322Z,18.82
2019-04-06T10:32:34.298Z,18.31
2019-04-06T10:33:34.376Z,17.62
2019-04-06T10:34:34.640Z,17.52
2019-04-06T10:35:34.347Z,16.93
2019-04-06T10:36:34.291Z,16.91
2019-04-06T10:37:34.264Z,16.31
2019-04-06T10:38:34.285Z,16.69
2019-04-06T10:39:34.227Z,16.39
2019-04-06T10:40:34.255Z,16.00
2019-04-06T10:41:34.254Z,15.52
2019-04-06T10:42:34.272Z,15.80
2019-04-06T10:43:34.291Z,15.22
2019-04-06T10:44:34.173Z,15.31
2019-04-06T10:45:34.174Z,15.70
2019-04-06T10:46:34.209Z,15.99
2019-04-06T10:47:34.517Z,15.98
2019-04-06T10:48:34.153Z,14.90
2019-04-06T10:49:34.382Z,15.00
2019-04-06T10:50:34.139Z,15.19
2019-04-06T10:51:34.154Z,15.87
2019-04-06T10:52:34.987Z,15.29
2019-04-06T10:53:34.109Z,15.29
2019-04-06T10:54:34.088Z,16.74
2019-04-06T10:55:34.082Z,16.26
2019-04-06T10:56:34.061Z,15.19
2019-04-06T10:57:34.108Z,15.48
2019-04-06T10:58:34.242Z,15.29
2019-04-06T10:59:34.108Z,16.26
2019-04-06T11:00:34.227Z,16.46
2019-04-06T11:01:34.013Z,16.56
2019-04-06T11:02:34.037Z,15.99
2019-04-06T11:03:34.000Z,15.89
2019-04-06T11:04:34.034Z,15.89
2019-04-06T11:05:34.192Z,15.91
2019-04-06T11:06:33.992Z,16.29
2019-04-06T11:07:34.562Z,15.81
2019-04-06T11:08:33.972Z,15.52
2019-04-06T11:09:33.934Z,15.61
2019-04-06T11:10:33.953Z,15.41
2019-04-06T11:11:34.032Z,15.81
2019-04-06T11:12:33.953Z,16.39
2019-04-06T11:13:34.465Z,15.99
2019-04-06T11:14:33.899Z,16.29
2019-04-06T11:15:33.922Z,15.32
2019-04-06T11:16:33.869Z,16.39
2019-04-06T11:17:33.891Z,16.69
2019-04-06T11:18:33.888Z,16.89
2019-04-06T11:19:34.831Z,17.29
2019-04-06T11:20:33.877Z,17.38
2019-04-06T11:21:33.858Z,17.20
2019-04-06T11:22:33.850Z,17.49
2019-04-06T11:23:33.875Z,17.21
2019-04-06T11:24:34.472Z,17.40
2019-04-06T11:25:33.842Z,17.49
2019-04-06T11:26:33.793Z,17.10
2019-04-06T11:27:33.773Z,16.51
2019-04-06T11:28:33.821Z,16.90
2019-04-06T11:29:33.782Z,16.49
2019-04-06T11:30:33.878Z,15.91
2019-04-06T11:31:33.732Z,15.91
2019-04-06T11:32:34.509Z,15.32
2019-04-06T11:33:33.749Z,15.80
2019-04-06T11:34:33.720Z,15.78
2019-04-06T11:35:33.707Z,15.19
2019-04-06T11:36:33.679Z,15.11
2019-04-06T11:37:33.710Z,15.71
2019-04-06T11:38:33.687Z,16.02
2019-04-06T11:39:33.651Z,16.82
2019-04-06T11:40:33.776Z,17.31
2019-04-06T11:41:33.650Z,17.23
2019-04-06T11:42:33.887Z,18.52
2019-04-06T11:43:34.475Z,18.62
2019-04-06T11:44:33.632Z,19.02
2019-04-06T11:45:33.607Z,19.21
2019-04-06T11:46:33.576Z,18.63
2019-04-06T11:47:33.561Z,18.34
2019-04-06T11:48:33.749Z,17.86
2019-04-06T11:49:33.805Z,18.35
2019-04-06T11:50:33.562Z,18.74
2019-04-06T11:51:33.525Z,18.66
2019-04-06T11:52:33.700Z,19.24
2019-04-06T11:53:33.523Z,19.24
2019-04-06T11:54:33.551Z,20.32
2019-04-06T11:55:33.480Z,18.95
2019-04-06T11:56:33.545Z,19.73
2019-04-06T11:57:33.457Z,19.15
2019-04-06T11:58:33.635Z,18.96
2019-04-06T11:59:33.724Z,19.26
2019-04-06T12:00:33.788Z,19.75
2019-04-06T12:01:33.672Z,19.65
2019-04-06T12:02:33.490Z,18.98
2019-04-06T12:03:33.624Z,20.36
2019-04-06T12:04:33.393Z,20.56
2019-04-06T12:05:33.370Z,21.16
2019-04-06T12:06:33.591Z,21.77
2019-04-06T12:07:33.361Z,21.59
2019-04-06T12:08:33.621Z,22.01
2019-04-06T12:09:33.650Z,23.20
2019-04-06T12:10:33.375Z,23.02
2019-04-06T12:11:33.304Z,22.35
2019-04-06T12:12:33.753Z,23.54
2019-04-06T12:13:33.310Z,24.84
2019-04-06T12:14:33.305Z,25.34
2019-04-06T12:15:33.661Z,25.24
2019-04-06T12:16:33.251Z,24.76
2019-04-06T12:17:33.295Z,24.87
2019-04-06T12:18:33.335Z,24.58
2019-04-06T12:19:33.227Z,24.80
2019-04-06T12:20:33.234Z,25.20
2019-04-06T12:21:33.221Z,25.10
2019-04-06T12:22:33.183Z,26.50
2019-04-06T12:23:33.778Z,26.90
2019-04-06T12:24:33.168Z,26.42
2019-04-06T12:25:33.241Z,27.21
2019-04-06T12:26:33.155Z,26.71
2019-04-06T12:27:33.136Z,27.91
2019-04-06T12:28:33.243Z,26.23
2019-04-06T12:29:33.198Z,27.51
2019-04-06T12:30:38.451Z,27.14
2019-04-06T12:31:34.080Z,27.03
2019-04-06T12:32:33.083Z,26.54
2019-04-06T12:33:33.224Z,27.03
2019-04-06T12:34:33.075Z,27.25
2019-04-06T12:35:33.973Z,26.46
2019-04-06T12:36:33.262Z,26.58
2019-04-06T12:37:33.058Z,28.28
2019-04-06T12:38:33.025Z,27.78
2019-04-06T12:39:33.009Z,28.77
2019-04-06T12:40:32.983Z,28.47
2019-04-06T12:41:33.016Z,28.69
2019-04-06T12:42:32.965Z,28.99
2019-04-06T12:43:33.042Z,28.77
2019-04-06T12:44:33.252Z,30.36
2019-04-06T12:45:32.961Z,29.57
2019-04-06T12:46:33.006Z,28.97
2019-04-06T12:47:33.035Z,30.26
2019-04-06T12:48:32.998Z,29.96
2019-04-06T12:49:33.146Z,30.26
2019-04-06T12:50:32.885Z,28.67
2019-04-06T12:51:33.031Z,28.67
2019-04-06T12:52:32.856Z,28.58
2019-04-06T12:53:32.867Z,27.58